Pagrindinis puslapis
METAR-TAF:

METAR-TAF

Oro uostai :

Kangerlussuaq, Grenlandija

platuma: 67-01N, ilguma: 050-42W, Aukštis: 50 m

Dabartinis oras

Ataskaita buvo paskelbta 57 minutes, ne 21:50 UTC
Vėjas 7 kt iš Rytų/Šiaurės Rytų
Temperatūra 3°C
Drėgmė 60%
Slėgis 1022 hPa
Matomumas 10 km arba daugiau

METAR: BGSF 162150Z AUTO 06007KT 9999NDV OVC065/// 03/M04 Q1022

Laikas: 20:47 (22:47 UTC)

Prognozė

Ataskaita buvo paskelbta 3 valandos ir 9 minutes, ne 19:38 UTC
Prognozė galioja nuo 16 metu 18 UTC su 17 metu 24 UTC
Vėjas 8 kt nuo kintamojo kryptimis
Matomumas 10 km arba daugiau
Su prošvaistėmis ne aukštis 6000 ft
Laikinai
nuo 16 metu 18 UTC su 17 metu 06 UTC
Išsisklaidę debesys ne aukštis 6000 ft
Tapsmas
nuo 16 metu 23 UTC su 17 metu 01 UTC
Vėjas 8 kt iš Rytų/Šiaurės Rytų
Tapsmas
nuo 17 metu 06 UTC su 17 metu 08 UTC
Išsisklaidę debesys ne aukštis 20000 ft

TAF: BGSF 161938Z 1618/1724 VRB08KT 9999 BKN060 TEMPO 1618/1706 SCT060 BECMG 1623/1701 06008KT BECMG 1706/1708 SCT200

Orai ataskaitas ir orų prognozės (METAR, TAF).

turimą stotys yra geltonos ir raudonos taškus žemėlapyje.

Perkelti pele per norėdami pamatyti stoties vardą.

Tada spustelėkite, norėdami matyti oro stebėjimo ir prognozės.

Norėdami pakeisti žemėlapį: spustelėkite ant žalios mygtukų su juodo kryžiaus žemyn,; žalią mygtuką su brūkšneliu, jei norite nutolinti; arba žalių rodyklių gretimoms žemėlapius.


METAR-TAF: